Time;durP1;ratioP1;P1;durP2;ratioP2;P2;SDS_P1;SDS_P2;PMS_P1;PMS_P2;Temp;Humidity;BMP_temperature;BMP_pressure;BME280_temperature;BME280_humidity;BME280_pressure;Samples;Min_cycle;Max_cycle;Signal;HPM_P1;HPM_P2
2021/12/27 00:00:16;;;;;;;31.75;12.02;;;;;;;6.22;100.00;97239.53;4958948;28;20031;-84
2021/12/27 00:02:42;;;;;;;27.27;11.55;;;;;;;6.18;100.00;97238.34;4958867;28;20031;-83
2021/12/27 00:05:08;;;;;;;26.70;12.90;;;;;;;6.09;100.00;97230.81;4942522;28;20497;-83
2021/12/27 00:07:34;;;;;;;31.25;12.27;;;;;;;6.20;100.00;97233.72;4959098;28;20033;-83
2021/12/27 00:10:00;;;;;;;125.72;16.15;;;;;;;6.11;100.00;97228.78;4958062;28;20110;-84
2021/12/27 00:12:29;;;;;;;61.25;14.00;;;;;;;6.12;100.00;97225.16;4941408;28;20378;-84
2021/12/27 00:14:55;;;;;;;87.40;15.63;;;;;;;6.09;100.00;97217.78;4942703;28;20042;-83
2021/12/27 00:17:20;;;;;;;34.38;12.27;;;;;;;6.07;100.00;97211.94;4957824;28;20508;-84
2021/12/27 00:19:47;;;;;;;30.10;12.82;;;;;;;6.02;100.00;97205.81;4944000;28;20035;-84
2021/12/27 00:22:13;;;;;;;59.13;13.93;;;;;;;5.96;100.00;97199.59;4942488;28;20496;-84
2021/12/27 00:24:38;;;;;;;32.28;14.02;;;;;;;5.97;100.00;97207.19;4958030;28;20027;-83
2021/12/27 00:27:06;;;;;;;37.13;13.40;;;;;;;6.04;100.00;97211.59;4942474;28;20041;-84
2021/12/27 00:29:32;;;;;;;27.27;12.23;;;;;;;6.16;100.00;97217.72;4941859;28;20030;-83
2021/12/27 00:31:58;;;;;;;29.25;12.52;;;;;;;6.14;100.00;97211.91;4940537;28;20029;-83
2021/12/27 00:34:24;;;;;;;30.05;12.85;;;;;;;6.14;100.00;97196.28;4958718;28;20058;-84
2021/12/27 00:36:50;;;;;;;53.03;14.43;;;;;;;6.07;100.00;97185.91;4975170;28;20105;-84
2021/12/27 00:39:16;;;;;;;30.90;13.43;;;;;;;6.09;100.00;97185.72;4942424;28;20034;-85
2021/12/27 00:41:41;;;;;;;29.60;13.23;;;;;;;6.13;100.00;97185.09;4958147;28;20038;-85
2021/12/27 00:44:07;;;;;;;26.92;11.82;;;;;;;6.11;100.00;97183.69;4957316;28;20061;-85
2021/12/27 00:46:33;;;;;;;27.77;12.52;;;;;;;6.13;100.00;97192.91;4975325;28;20030;-85
2021/12/27 00:48:58;;;;;;;31.77;13.23;;;;;;;6.05;100.00;97187.91;4957182;28;20031;-83
2021/12/27 00:51:24;;;;;;;40.58;16.35;;;;;;;6.03;100.00;97182.13;4974260;28;20025;-84
2021/12/27 00:53:50;;;;;;;34.92;15.57;;;;;;;6.15;100.00;97197.88;4941598;28;20035;-84
2021/12/27 00:56:15;;;;;;;31.48;15.77;;;;;;;6.06;100.00;97176.50;4957690;28;20030;-84
2021/12/27 00:58:41;;;;;;;32.90;14.48;;;;;;;6.23;100.00;97199.44;4956873;28;20397;-84
2021/12/27 01:01:07;;;;;;;29.35;13.50;;;;;;;6.14;100.00;97181.47;4956895;28;20073;-84
2021/12/27 01:03:32;;;;;;;27.83;13.00;;;;;;;6.16;100.00;97186.44;4974507;28;20027;-85
2021/12/27 01:05:58;;;;;;;28.65;14.60;;;;;;;6.15;100.00;97182.25;4957393;28;20035;-85
2021/12/27 01:08:23;;;;;;;31.52;15.52;;;;;;;6.14;100.00;97184.06;4957665;28;20026;-85
2021/12/27 01:11:10;;;;;;;48.17;16.42;;;;;;;6.03;100.00;97181.34;4956651;28;20030;-84
2021/12/27 01:13:45;;;;;;;31.63;13.60;;;;;;;5.97;100.00;97175.13;4957293;28;20034;-84
2021/12/27 01:16:13;;;;;;;41.40;15.43;;;;;;;6.05;100.00;97200.16;4954936;28;20134;-84
2021/12/27 01:18:46;;;;;;;64.28;15.70;;;;;;;5.87;100.00;97165.19;4947306;28;20397;-85
2021/12/27 01:21:13;;;;;;;25.63;10.33;;;;;;;6.03;100.00;97192.53;4956476;28;20031;-83
2021/12/27 01:23:39;;;;;;;55.95;15.10;;;;;;;5.91;100.00;97187.19;4956386;28;20122;-84
2021/12/27 01:26:05;;;;;;;32.10;13.13;;;;;;;5.83;100.00;97156.22;4957400;28;20564;-84
2021/12/27 01:28:31;;;;;;;33.95;14.27;;;;;;;5.88;100.00;97166.78;4957262;28;20097;-84
2021/12/27 01:30:57;;;;;;;72.43;15.38;;;;;;;5.95;100.00;97166.75;4957007;28;20022;-86
2021/12/27 01:33:25;;;;;;;27.55;13.02;;;;;;;5.80;100.00;97135.81;4958120;28;20034;-85
2021/12/27 01:35:51;;;;;;;29.13;13.70;;;;;;;5.91;100.00;97150.72;4957822;28;20037;-84
2021/12/27 01:38:17;;;;;;;43.10;15.90;;;;;;;5.99;100.00;97152.28;4957321;28;20040;-86
2021/12/27 01:40:47;;;;;;;33.63;15.40;;;;;;;6.09;100.00;97154.44;4958252;28;20030;-86
2021/12/27 01:43:14;;;;;;;35.80;14.98;;;;;;;6.10;100.00;97153.44;4956926;28;20027;-86
2021/12/27 01:45:47;;;;;;;32.97;14.73;;;;;;;6.13;100.00;97153.81;4955872;28;20069;-85
2021/12/27 01:48:16;;;;;;;33.85;14.73;;;;;;;6.03;100.00;97135.25;4974894;28;20465;-84
2021/12/27 01:50:44;;;;;;;33.75;15.90;;;;;;;6.05;100.00;97135.84;4941868;28;20035;-86
2021/12/27 01:53:11;;;;;;;42.38;16.85;;;;;;;6.17;100.00;97148.97;4977667;28;20031;-86
2021/12/27 01:55:38;;;;;;;39.22;15.85;;;;;;;6.13;100.00;97135.59;4945307;28;20038;-87
2021/12/27 01:58:04;;;;;;;34.63;15.80;;;;;;;6.20;100.00;97142.53;4945577;28;20182;-87
2021/12/27 02:00:32;;;;;;;34.83;16.13;;;;;;;6.17;100.00;97143.75;4972071;28;20030;-86
2021/12/27 02:02:58;;;;;;;31.55;15.43;;;;;;;6.06;100.00;97131.44;4975220;28;20094;-86
2021/12/27 02:05:23;;;;;;;29.42;15.38;;;;;;;6.13;100.00;97143.41;4946334;28;20039;-86
2021/12/27 02:07:49;;;;;;;36.35;15.98;;;;;;;6.08;100.00;97130.19;4944063;28;20035;-86
2021/12/27 02:10:15;;;;;;;38.38;17.27;;;;;;;6.14;100.00;97136.38;4975729;28;20121;-88
2021/12/27 02:12:41;;;;;;;38.47;17.33;;;;;;;6.21;100.00;97150.16;4942721;28;20019;-87
2021/12/27 02:15:09;;;;;;;39.13;16.15;;;;;;;6.27;100.00;97151.09;4958640;28;20084;-86
2021/12/27 02:17:41;;;;;;;42.42;17.13;;;;;;;6.25;100.00;97145.28;4955905;28;20054;-85
2021/12/27 02:20:18;;;;;;;35.97;15.07;;;;;;;6.35;100.00;97150.03;4956852;28;20042;-86
2021/12/27 02:22:45;;;;;;;36.33;14.70;;;;;;;6.35;100.00;97145.63;4957886;28;20037;-86
2021/12/27 02:25:12;;;;;;;49.90;15.48;;;;;;;6.37;100.00;97137.56;4940756;28;20027;-87
2021/12/27 02:27:39;;;;;;;43.35;16.45;;;;;;;6.35;100.00;97124.78;4957496;28;20477;-87
2021/12/27 02:30:07;;;;;;;43.05;16.23;;;;;;;6.27;100.00;97125.84;4956580;28;20031;-85
2021/12/27 02:32:44;;;;;;;50.00;16.40;;;;;;;6.30;100.00;97132.44;4941221;28;20524;-85
2021/12/27 02:35:13;;;;;;;48.88;17.17;;;;;;;6.35;100.00;97131.78;4939164;28;20034;-86
2021/12/27 02:37:39;;;;;;;33.97;15.80;;;;;;;6.27;100.00;97125.84;4945891;28;20441;-87
2021/12/27 02:40:05;;;;;;;33.67;15.25;;;;;;;6.32;100.00;97138.25;4956624;28;20113;-85
2021/12/27 02:42:31;;;;;;;30.52;14.50;;;;;;;6.26;100.00;97123.44;4940276;28;20059;-86
2021/12/27 02:44:56;;;;;;;29.98;13.73;;;;;;;6.20;100.00;97098.25;4966587;28;20062;-86
2021/12/27 02:47:22;;;;;;;31.95;15.13;;;;;;;6.39;100.00;97131.16;4941262;28;20507;-86
2021/12/27 02:49:48;;;;;;;30.45;14.38;;;;;;;6.24;100.00;97099.41;4956013;28;20481;-86
2021/12/27 02:52:14;;;;;;;30.67;14.52;;;;;;;6.40;100.00;97114.50;4940510;28;20125;-88
2021/12/27 02:54:44;;;;;;;30.48;14.20;;;;;;;6.38;100.00;97106.09;4956813;28;20481;-86
2021/12/27 02:57:10;;;;;;;50.67;16.23;;;;;;;6.37;100.00;97104.50;4938457;28;20027;-84
2021/12/27 02:59:36;;;;;;;32.60;15.77;;;;;;;6.25;100.00;97086.19;4941368;28;20551;-84
2021/12/27 03:02:02;;;;;;;32.28;14.95;;;;;;;6.34;100.00;97107.56;4972236;28;20049;-85
2021/12/27 03:04:34;;;;;;;31.95;14.75;;;;;;;6.23;100.00;97090.81;4955320;28;20060;-85
2021/12/27 03:07:00;;;;;;;29.20;14.73;;;;;;;6.33;100.00;97100.75;4957533;28;20034;-85
2021/12/27 03:09:28;;;;;;;33.10;15.80;;;;;;;6.27;100.00;97091.97;4956486;28;20039;-85
2021/12/27 03:11:53;;;;;;;41.65;16.35;;;;;;;6.30;100.00;97088.16;4956218;28;20035;-87
2021/12/27 03:14:23;;;;;;;34.65;16.83;;;;;;;6.26;100.00;97089.56;4954812;28;20057;-85
2021/12/27 03:16:48;;;;;;;63.92;17.17;;;;;;;6.40;100.00;97106.69;4955581;28;20055;-86
2021/12/27 03:19:15;;;;;;;31.13;15.75;;;;;;;6.26;100.00;97085.16;4956582;28;20030;-87
2021/12/27 03:21:41;;;;;;;35.03;16.33;;;;;;;6.32;100.00;97087.91;4973843;28;20078;-85
2021/12/27 03:24:07;;;;;;;34.45;16.13;;;;;;;6.29;100.00;97079.53;4955792;28;20030;-85
2021/12/27 03:26:33;;;;;;;34.60;16.63;;;;;;;6.25;100.00;97069.75;4956565;28;20035;-87
2021/12/27 03:28:59;;;;;;;31.58;15.15;;;;;;;6.28;100.00;97082.34;4956774;28;20439;-86
2021/12/27 03:31:24;;;;;;;138.77;20.45;;;;;;;6.19;100.00;97071.41;4955819;28;20330;-86
2021/12/27 03:33:51;;;;;;;35.90;16.17;;;;;;;6.20;100.00;97062.59;4940698;28;20046;-85
2021/12/27 03:36:17;;;;;;;49.28;16.33;;;;;;;6.23;100.00;97059.56;4940548;28;20034;-86
2021/12/27 03:38:47;;;;;;;33.38;16.13;;;;;;;6.41;100.00;97084.81;4954092;28;20134;-85
2021/12/27 03:41:16;;;;;;;31.55;15.93;;;;;;;6.39;100.00;97086.06;4940279;28;20043;-86
2021/12/27 03:43:42;;;;;;;33.78;16.55;;;;;;;6.29;100.00;97068.31;4955603;28;20401;-86
2021/12/27 03:46:08;;;;;;;30.95;15.52;;;;;;;6.34;100.00;97067.66;4973413;28;20427;-85
2021/12/27 03:48:34;;;;;;;37.35;16.88;;;;;;;6.50;100.00;97089.75;4956521;28;20042;-87
2021/12/27 03:51:01;;;;;;;32.10;15.73;;;;;;;6.35;100.00;97059.63;4939690;28;20070;-84
2021/12/27 03:53:26;;;;;;;38.13;17.02;;;;;;;6.52;100.00;97087.75;4973505;28;20035;-85
2021/12/27 03:55:52;;;;;;;33.42;16.13;;;;;;;6.35;100.00;97051.81;4956862;28;20035;-86
2021/12/27 03:58:28;;;;;;;30.95;16.20;;;;;;;6.53;100.00;97076.28;4972918;28;20110;-86
2021/12/27 04:03:20;;;;;;;31.65;15.88;;;;;;;6.51;100.00;97068.69;4955464;28;20114;-84
2021/12/27 04:05:47;;;;;;;40.65;17.95;;;;;;;6.41;100.00;97053.53;4975230;28;20118;-85
2021/12/27 04:08:13;;;;;;;31.17;16.25;;;;;;;6.40;100.00;97049.34;4976574;28;20030;-84
2021/12/27 04:10:41;;;;;;;34.55;16.83;;;;;;;6.40;100.00;97035.53;4958766;28;20049;-87
2021/12/27 04:13:21;;;;;;;35.63;17.60;;;;;;;6.45;100.00;97046.09;4976911;28;20106;-87
2021/12/27 04:15:57;;;;;;;35.03;16.45;;;;;;;6.48;100.00;97055.28;4944756;28;20037;-85
2021/12/27 04:18:28;;;;;;;34.30;17.17;;;;;;;6.33;100.00;97026.97;4943319;28;20039;-86
2021/12/27 04:20:53;;;;;;;34.33;17.33;;;;;;;6.40;100.00;97036.31;4943195;28;20037;-86
2021/12/27 04:23:19;;;;;;;34.10;16.10;;;;;;;6.36;100.00;97035.16;4958794;28;20050;-84
2021/12/27 04:25:45;;;;;;;45.80;17.08;;;;;;;6.50;100.00;97053.28;4975718;28;20073;-87
2021/12/27 04:28:12;;;;;;;31.80;16.08;;;;;;;6.34;100.00;97028.56;4942452;28;20027;-86
2021/12/27 04:30:38;;;;;;;45.88;16.95;;;;;;;6.43;100.00;97042.91;4958763;28;20039;-86
2021/12/27 04:33:04;;;;;;;32.40;16.13;;;;;;;6.36;100.00;97032.56;4943363;28;20113;-87
2021/12/27 04:35:30;;;;;;;73.38;17.95;;;;;;;6.40;100.00;97049.34;4976386;28;20038;-88
2021/12/27 04:37:57;;;;;;;75.97;18.52;;;;;;;6.35;100.00;97041.41;4941483;28;20041;-87
2021/12/27 04:40:24;;;;;;;50.67;17.58;;;;;;;6.38;100.00;97025.31;4945751;28;20035;-87
2021/12/27 04:42:55;;;;;;;34.47;16.00;;;;;;;6.34;100.00;97018.94;4942814;28;20031;-85
2021/12/27 04:45:20;;;;;;;31.75;16.00;;;;;;;6.34;100.00;97018.94;4941395;28;20035;-86
2021/12/27 04:47:46;;;;;;;60.65;16.77;;;;;;;6.40;100.00;97028.50;4938575;28;20573;-86
2021/12/27 04:50:12;;;;;;;39.45;16.00;;;;;;;6.32;100.00;97025.38;4941914;28;20030;-85
2021/12/27 04:52:39;;;;;;;72.57;17.02;;;;;;;6.22;100.00;97011.06;4959213;28;20034;-84
2021/12/27 04:55:05;;;;;;;45.58;14.77;;;;;;;6.30;100.00;97017.81;4960596;28;20031;-87
2021/12/27 04:57:30;;;;;;;93.65;17.35;;;;;;;6.23;100.00;97001.41;4958492;28;20093;-85
2021/12/27 04:59:56;;;;;;;94.07;16.95;;;;;;;6.07;100.00;96979.34;4958511;28;20063;-85
2021/12/27 05:02:22;;;;;;;39.53;15.32;;;;;;;6.17;100.00;96997.09;4959145;28;20083;-86
2021/12/27 05:04:48;;;;;;;117.97;17.60;;;;;;;6.05;100.00;96994.41;4942013;28;20038;-85
2021/12/27 05:07:13;;;;;;;42.85;14.18;;;;;;;6.11;100.00;97007.38;4942642;28;20027;-85
2021/12/27 05:09:39;;;;;;;66.05;14.65;;;;;;;6.14;100.00;97014.75;4975313;28;20510;-85
2021/12/27 05:12:05;;;;;;;42.50;14.63;;;;;;;6.12;100.00;97003.75;4957615;28;20026;-84
2021/12/27 05:14:31;;;;;;;45.47;14.35;;;;;;;6.11;100.00;96999.56;4958432;28;20158;-84
2021/12/27 05:16:56;;;;;;;34.28;13.30;;;;;;;6.12;100.00;97002.94;4973881;28;20121;-85
2021/12/27 05:19:22;;;;;;;109.78;18.95;;;;;;;6.08;100.00;97007.78;4958457;28;20046;-85
2021/12/27 05:21:47;;;;;;;34.38;14.73;;;;;;;6.16;100.00;97008.53;4942061;28;20039;-86
2021/12/27 05:24:13;;;;;;;58.45;14.18;;;;;;;5.98;100.00;96984.03;4941671;28;20389;-85
2021/12/27 05:26:39;;;;;;;32.13;14.10;;;;;;;6.02;100.00;96985.19;4958093;28;20389;-84
2021/12/27 05:29:05;;;;;;;46.97;14.75;;;;;;;5.98;100.00;96978.81;4957798;28;20031;-85
2021/12/27 05:31:31;;;;;;;50.47;15.05;;;;;;;6.07;100.00;96990.56;4957633;28;20045;-85
2021/12/27 05:33:57;;;;;;;71.13;15.07;;;;;;;6.10;100.00;96992.75;4958198;28;20508;-85
2021/12/27 05:36:22;;;;;;;39.13;13.88;;;;;;;6.10;100.00;96991.94;4958082;28;20034;-84
2021/12/27 05:38:48;;;;;;;30.88;12.43;;;;;;;5.94;100.00;96965.41;4956920;28;20045;-85
2021/12/27 05:41:13;;;;;;;36.22;12.95;;;;;;;6.16;100.00;96985.06;4957916;28;20109;-84
2021/12/27 05:43:39;;;;;;;42.10;12.45;;;;;;;6.09;100.00;96961.69;4957192;28;20038;-84
2021/12/27 05:46:05;;;;;;;30.17;13.10;;;;;;;6.12;100.00;96963.88;4956599;28;20037;-85
2021/12/27 05:48:33;;;;;;;57.55;13.13;;;;;;;6.00;100.00;96945.53;4942086;28;20048;-85
2021/12/27 05:50:59;;;;;;;35.05;12.25;;;;;;;6.17;100.00;96971.03;4957496;28;20035;-84
2021/12/27 05:53:24;;;;;;;79.43;15.68;;;;;;;5.95;100.00;96940.19;4957540;28;20401;-84
2021/12/27 05:55:51;;;;;;;49.70;13.52;;;;;;;6.20;100.00;96970.59;4975134;28;20436;-86
2021/12/27 05:58:17;;;;;;;180.23;18.45;;;;;;;6.09;100.00;96967.72;4975070;28;20496;-85
2021/12/27 06:00:44;;;;;;;49.83;14.57;;;;;;;6.03;100.00;96958.16;4958138;28;20054;-86
2021/12/27 06:03:10;;;;;;;87.85;15.43;;;;;;;6.04;100.00;96945.94;4977082;28;20049;-85
2021/12/27 06:05:35;;;;;;;142.88;17.02;;;;;;;6.20;100.00;96961.00;4983792;28;20031;-85
2021/12/27 06:08:01;;;;;;;117.57;15.45;;;;;;;6.13;100.00;96949.81;4957738;28;20100;-84
2021/12/27 06:10:28;;;;;;;79.63;13.80;;;;;;;6.16;100.00;96938.19;4963735;28;20031;-84
2021/12/27 06:12:54;;;;;;;29.83;10.70;;;;;;;6.61;100.00;96945.66;4959857;28;20441;-84
2021/12/27 06:15:19;;;;;;;154.55;16.05;;;;;;;5.38;100.00;96947.09;4941854;28;20034;-84
2021/12/27 06:17:46;;;;;;;70.15;12.10;;;;;;;5.23;100.00;96946.63;4940215;28;20142;-83
2021/12/27 06:20:15;;;;;;;80.93;11.75;;;;;;;4.99;100.00;96938.56;4957323;28;20048;-84
2021/12/27 06:22:45;;;;;;;80.55;11.60;;;;;;;4.96;100.00;96936.41;4974345;28;20162;-85
2021/12/27 06:25:11;;;;;;;68.45;10.77;;;;;;;4.98;100.00;96949.97;4959875;28;20022;-85
2021/12/27 06:27:36;;;;;;;58.55;9.40;;;;;;;4.84;100.00;96937.09;4956405;28;20033;-85
2021/12/27 06:30:07;;;;;;;125.88;12.05;;;;;;;4.96;100.00;96947.59;4957127;28;20517;-84
2021/12/27 06:32:36;;;;;;;112.15;12.85;;;;;;;4.91;100.00;96934.41;4940777;28;20034;-85
2021/12/27 06:35:06;;;;;;;49.28;10.27;;;;;;;4.91;100.00;96934.41;4957245;28;20053;-85
2021/12/27 06:37:32;;;;;;;31.42;9.07;;;;;;;4.80;100.00;96916.91;4955853;28;20030;-84
2021/12/27 06:39:58;;;;;;;348.52;21.75;;;;;;;4.86;100.00;96926.47;4957046;28;20480;-85
2021/12/27 06:42:24;;;;;;;81.22;11.32;;;;;;;4.84;100.00;96915.47;4957545;28;20430;-85
2021/12/27 06:44:50;;;;;;;63.25;9.90;;;;;;;4.97;100.00;96946.59;4956375;28;20393;-84
2021/12/27 06:47:17;;;;;;;56.90;9.40;;;;;;;4.91;100.00;96928.44;4961878;28;20503;-84
2021/12/27 06:49:43;;;;;;;25.30;8.63;;;;;;;5.02;100.00;96932.16;4956837;28;20027;-84
2021/12/27 06:52:11;;;;;;;46.63;9.30;;;;;;;5.00;100.00;96917.56;4939781;28;20050;-86
2021/12/27 06:54:38;;;;;;;19.77;8.63;;;;;;;4.95;100.00;96909.63;4956318;28;20121;-85
2021/12/27 06:57:04;;;;;;;18.75;7.75;;;;;;;5.15;100.00;96919.06;4956385;28;20042;-86
2021/12/27 06:59:30;;;;;;;19.75;8.32;;;;;;;4.98;100.00;96888.38;4971249;28;20114;-87
2021/12/27 07:01:56;;;;;;;15.85;7.63;;;;;;;5.11;100.00;96902.28;4940036;28;20035;-86
2021/12/27 07:04:22;;;;;;;22.92;9.20;;;;;;;5.17;100.00;96898.84;4956270;28;20504;-85
2021/12/27 07:06:48;;;;;;;104.80;11.48;;;;;;;5.25;100.00;96926.41;4940256;28;20026;-86
2021/12/27 07:09:14;;;;;;;39.55;10.27;;;;;;;5.27;100.00;96922.56;4942119;28;20038;-87
2021/12/27 07:11:41;;;;;;;108.45;12.93;;;;;;;5.19;100.00;96912.44;4955527;28;20023;-86
2021/12/27 07:14:06;;;;;;;68.10;9.55;;;;;;;5.09;100.00;96889.50;4939910;28;20062;-86
2021/12/27 07:16:32;;;;;;;22.00;7.03;;;;;;;5.18;100.00;96905.66;4939373;28;20476;-85
2021/12/27 07:18:58;;;;;;;74.63;8.82;;;;;;;5.18;100.00;96903.03;4938848;28;20407;-86
2021/12/27 07:21:23;;;;;;;25.75;8.15;;;;;;;5.15;100.00;96899.03;4939551;28;20114;-85
2021/12/27 07:23:49;;;;;;;198.80;13.38;;;;;;;5.13;100.00;96898.47;4954523;28;20038;-86
2021/12/27 07:26:15;;;;;;;31.30;7.55;;;;;;;5.12;100.00;96891.69;4939659;28;20579;-84
2021/12/27 07:28:40;;;;;;;18.20;7.57;;;;;;;5.23;100.00;96900.59;4955554;28;20041;-84
2021/12/27 07:31:07;;;;;;;117.95;11.88;;;;;;;5.24;100.00;96917.00;4939002;28;20042;-85
2021/12/27 07:33:33;;;;;;;79.60;10.23;;;;;;;5.23;100.00;96916.19;4972680;28;20062;-86
2021/12/27 07:36:00;;;;;;;23.10;7.47;;;;;;;5.27;100.00;96912.16;4939719;28;20031;-85
2021/12/27 07:38:25;;;;;;;14.25;6.75;;;;;;;5.30;100.00;96921.34;4938562;28;20397;-85
2021/12/27 07:40:51;;;;;;;172.52;12.65;;;;;;;5.13;100.00;96900.28;4941228;28;20100;-84
2021/12/27 07:43:16;;;;;;;77.78;11.25;;;;;;;5.29;100.00;96915.34;4943468;28;20037;-85
2021/12/27 07:45:42;;;;;;;40.30;8.02;;;;;;;5.32;100.00;96910.75;4958451;28;20034;-85
2021/12/27 07:48:09;;;;;;;131.02;12.05;;;;;;;5.25;100.00;96895.97;4943318;28;20046;-87
2021/12/27 07:50:35;;;;;;;40.95;7.80;;;;;;;5.24;100.00;96896.19;4976711;28;20366;-85
2021/12/27 07:53:01;;;;;;;14.98;6.88;;;;;;;5.29;100.00;96893.75;4959269;28;20034;-85
2021/12/27 07:55:27;;;;;;;15.57;6.43;;;;;;;5.35;100.00;96899.91;4943046;28;20041;-86
2021/12/27 07:57:57;;;;;;;22.83;7.72;;;;;;;5.56;100.00;96925.53;4959595;28;20363;-85
2021/12/27 08:00:24;;;;;;;26.45;9.35;;;;;;;5.59;100.00;96929.50;4959423;28;20114;-87
2021/12/27 08:02:50;;;;;;;18.50;8.88;;;;;;;5.48;100.00;96904.97;4944738;28;20030;-84
2021/12/27 08:05:16;;;;;;;383.23;19.55;;;;;;;5.39;100.00;96914.06;4975539;28;20039;-85
2021/12/27 08:07:42;;;;;;;18.75;7.47;;;;;;;5.45;100.00;96915.81;4942676;28;20115;-88
2021/12/27 08:10:10;;;;;;;16.50;7.72;;;;;;;5.49;100.00;96911.78;4941355;28;20026;-84
2021/12/27 08:12:37;;;;;;;36.92;8.02;;;;;;;5.49;100.00;96903.19;4942527;28;20033;-85
2021/12/27 08:15:04;;;;;;;36.03;7.85;;;;;;;5.41;100.00;96901.66;4942500;28;20038;-84
2021/12/27 08:17:29;;;;;;;21.88;8.93;;;;;;;5.52;100.00;96903.56;4973088;28;20047;-85
2021/12/27 08:19:55;;;;;;;14.70;7.22;;;;;;;5.47;100.00;96890.38;4957394;28;20035;-84
2021/12/27 08:22:20;;;;;;;17.45;6.18;;;;;;;5.52;100.00;96893.16;4942146;28;20492;-85
2021/12/27 08:24:46;;;;;;;16.42;5.93;;;;;;;5.56;100.00;96898.69;4940867;28;20034;-83
2021/12/27 08:27:11;;;;;;;36.42;7.78;;;;;;;5.70;100.00;96910.59;4941590;28;20031;-84
2021/12/27 08:29:38;;;;;;;22.73;9.45;;;;;;;5.52;100.00;96890.53;4957943;28;20396;-84
2021/12/27 08:32:04;;;;;;;18.55;8.32;;;;;;;5.64;100.00;96905.44;4974317;28;20022;-83
2021/12/27 08:34:31;;;;;;;35.30;8.65;;;;;;;5.67;100.00;96913.63;4942530;28;20054;-83
2021/12/27 08:36:57;;;;;;;19.23;8.57;;;;;;;5.65;100.00;96922.63;4974790;28;20041;-84
2021/12/27 08:39:23;;;;;;;52.85;9.38;;;;;;;5.68;100.00;96922.22;4957470;28;20023;-84
2021/12/27 08:41:50;;;;;;;47.05;10.18;;;;;;;5.63;100.00;96917.66;4958609;28;20027;-84
2021/12/27 08:44:16;;;;;;;24.15;8.82;;;;;;;5.45;100.00;96913.22;4942293;28;20058;-84
2021/12/27 08:46:43;;;;;;;52.92;8.40;;;;;;;5.49;100.00;96924.78;4946899;28;20058;-84
2021/12/27 08:49:09;;;;;;;52.58;9.38;;;;;;;5.49;100.00;96918.78;4961159;28;20027;-82
2021/12/27 08:51:35;;;;;;;22.23;9.95;;;;;;;5.49;100.00;96924.00;4972203;28;20031;-82
2021/12/27 08:54:04;;;;;;;36.22;9.07;;;;;;;5.57;100.00;96921.91;4959929;28;20027;-83
2021/12/27 08:56:31;;;;;;;17.40;7.50;;;;;;;5.57;100.00;96916.72;4946202;28;20027;-82
2021/12/27 08:58:57;;;;;;;23.83;8.60;;;;;;;5.54;100.00;96908.53;4957754;28;20117;-82
2021/12/27 09:01:23;;;;;;;70.40;13.38;;;;;;;5.58;100.00;96931.31;4956968;28;20039;-82
2021/12/27 09:03:49;;;;;;;125.85;13.30;;;;;;;5.49;100.00;96924.78;4973303;28;20397;-81
2021/12/27 09:06:14;;;;;;;22.58;9.13;;;;;;;5.52;100.00;96923.56;4941954;28;20113;-81
2021/12/27 09:08:41;;;;;;;41.63;9.50;;;;;;;5.53;100.00;96933.78;4975268;28;20037;-83
2021/12/27 09:11:07;;;;;;;48.10;10.68;;;;;;;5.61;100.00;96927.50;4958279;28;20058;-83
2021/12/27 09:13:36;;;;;;;78.85;12.80;;;;;;;5.70;100.00;96928.03;4942875;28;20034;-86
2021/12/27 09:16:03;;;;;;;52.35;9.95;;;;;;;5.68;100.00;96925.63;4956870;28;20069;-86
2021/12/27 09:18:31;;;;;;;40.28;9.30;;;;;;;5.67;100.00;96920.63;4974401;28;20027;-85
2021/12/27 09:20:58;;;;;;;97.68;14.18;;;;;;;5.67;100.00;96912.81;4943524;28;20038;-85
2021/12/27 09:23:24;;;;;;;35.55;9.82;;;;;;;5.82;100.00;96913.25;4951180;28;20039;-87
2021/12/27 09:25:49;;;;;;;31.83;9.55;;;;;;;5.83;100.00;96912.25;4942030;28;20109;-83
2021/12/27 09:28:16;;;;;;;71.90;10.90;;;;;;;5.84;100.00;96910.44;4977947;28;20481;-84
2021/12/27 09:30:42;;;;;;;21.38;9.20;;;;;;;5.88;100.00;96900.38;4973338;28;20043;-83
2021/12/27 09:33:08;;;;;;;228.57;17.45;;;;;;;5.83;100.00;96883.59;4958446;28;20114;-82
2021/12/27 09:35:34;;;;;;;22.38;9.63;;;;;;;5.91;100.00;96894.75;4957375;28;20031;-83
2021/12/27 09:38:00;;;;;;;16.42;8.43;;;;;;;5.84;100.00;96866.19;4941614;28;20035;-86
2021/12/27 09:40:26;;;;;;;57.63;10.10;;;;;;;5.90;100.00;96864.53;4941860;28;20106;-84
2021/12/27 09:42:53;;;;;;;24.17;10.60;;;;;;;5.93;100.00;96862.28;4957603;28;20042;-85
2021/12/27 09:45:19;;;;;;;28.75;11.50;;;;;;;5.94;100.00;96852.66;4959295;28;20034;-86
2021/12/27 09:47:47;;;;;;;31.25;10.25;;;;;;;6.00;100.00;96851.78;4943262;28;20038;-88
2021/12/27 09:50:18;;;;;;;112.43;12.13;;;;;;;5.95;100.00;96833.41;4941710;28;20031;-83
2021/12/27 09:52:45;;;;;;;26.42;10.43;;;;;;;5.94;100.00;96842.25;4957902;28;20062;-83
2021/12/27 09:55:11;;;;;;;215.05;19.23;;;;;;;6.01;100.00;96853.41;4958301;28;20118;-83
2021/12/27 09:57:37;;;;;;;281.50;22.02;;;;;;;6.06;100.00;96861.34;4977922;28;20038;-82
2021/12/27 10:00:05;;;;;;;140.48;13.52;;;;;;;5.91;100.00;96860.91;4944250;29;20027;-84
2021/12/27 10:02:35;;;;;;;208.15;15.70;;;;;;;5.83;100.00;96857.56;4955583;28;20071;-84
2021/12/27 10:05:01;;;;;;;26.00;9.93;;;;;;;5.83;100.00;96839.34;4969594;28;20110;-83
2021/12/27 10:07:29;;;;;;;89.20;13.00;;;;;;;5.84;100.00;96847.97;4962628;28;20081;-83
2021/12/27 10:09:58;;;;;;;102.75;13.00;;;;;;;5.90;100.00;96867.91;4943760;28;20101;-82
2021/12/27 10:12:26;;;;;;;48.35;9.68;;;;;;;5.86;100.00;96877.97;4959119;28;20120;-82
2021/12/27 10:14:59;;;;;;;44.33;10.10;;;;;;;5.91;100.00;96889.56;4958376;28;20035;-81
2021/12/27 10:17:25;;;;;;;;;;;;;;;5.95;100.00;96886.28;4958154;28;20130;-81
2021/12/27 10:19:53;;;;;;;71.95;13.77;;;;;;;5.98;100.00;96882.47;4942265;28;20008;-83
2021/12/27 10:22:20;;;;;;;22.80;8.15;;;;;;;5.91;100.00;96879.16;4957999;28;20501;-83
2021/12/27 10:24:50;;;;;;;195.82;16.23;;;;;;;5.89;100.00;96881.94;4957816;28;20608;-83
2021/12/27 10:27:18;;;;;;;114.20;13.52;;;;;;;5.86;100.00;96870.16;4941669;28;20038;-83
2021/12/27 10:29:44;;;;;;;143.23;15.30;;;;;;;5.95;100.00;96875.09;4941705;28;20105;-84
2021/12/27 10:32:14;;;;;;;31.63;8.80;;;;;;;6.06;100.00;96876.19;4941834;28;20489;-84
2021/12/27 10:34:39;;;;;;;98.47;12.13;;;;;;;5.97;100.00;96868.63;4956339;28;20396;-82
2021/12/27 10:37:05;;;;;;;19.65;9.38;;;;;;;6.00;100.00;96873.41;4957660;28;20031;-83
2021/12/27 10:40:08;;;;;;;17.85;7.90;;;;;;;6.12;100.00;96870.09;4941483;28;20034;-83
2021/12/27 10:42:36;;;;;;;19.45;8.85;;;;;;;6.11;100.00;96868.50;4952086;28;20041;-83
2021/12/27 10:45:04;;;;;;;148.13;17.63;;;;;;;6.09;100.00;96828.88;4941392;28;20136;-83
2021/12/27 10:47:31;;;;;;;24.48;10.50;;;;;;;6.28;100.00;96845.25;4957706;28;20035;-85
2021/12/27 10:50:18;;;;;;;25.77;8.95;;;;;;;6.10;100.00;96813.03;4957072;28;20034;-82
2021/12/27 10:52:58;;;;;;;31.17;10.27;;;;;;;6.27;100.00;96835.84;4957987;28;20102;-84
2021/12/27 10:55:31;;;;;;;21.88;10.65;;;;;;;6.24;100.00;96825.84;4941732;28;20105;-82
2021/12/27 10:58:18;;;;;;;37.92;10.93;;;;;;;6.40;100.00;96830.44;4946983;28;20093;-83
2021/12/27 11:00:47;;;;;;;44.97;10.65;;;;;;;6.32;100.00;96807.31;4941427;28;20039;-85
2021/12/27 11:03:27;;;;;;;38.88;12.98;;;;;;;6.41;100.00;96819.00;4957112;28;20039;-85
2021/12/27 11:05:53;;;;;;;102.82;15.25;;;;;;;6.45;100.00;96815.94;4957635;28;20035;-82
2021/12/27 11:08:19;;;;;;;61.17;11.20;;;;;;;6.39;100.00;96813.22;4957431;28;20045;-83
2021/12/27 11:10:45;;;;;;;45.03;10.82;;;;;;;6.34;100.00;96805.28;4941385;28;20042;-82
2021/12/27 11:13:11;;;;;;;96.07;15.70;;;;;;;6.40;100.00;96796.56;4941509;28;20082;-83
2021/12/27 11:15:37;;;;;;;43.03;14.63;;;;;;;6.37;100.00;96798.81;4945198;28;20389;-83
2021/12/27 11:18:06;;;;;;;205.13;19.33;;;;;;;6.32;100.00;96798.69;4961539;28;20397;-83
2021/12/27 11:20:34;;;;;;;62.17;12.90;;;;;;;6.46;100.00;96796.69;4939421;28;20066;-82